Trempealeau, WI (54661)

20:25 CDT le 24 octobre 2014 (GMT -0500)
Holmen | Change Station
CLOSE
Current Station
Stations météorologiques personnelles
Location: Holmen, WI
Altitude: 705 ft
Stations météo à proximité

Alt. 705 ft 43.96 °N, 91.26 °W | Updated 9 seconds ago

Couvert
Couvert
57.4 ° F
Paraît 57.4 ° F
N
0.3
Vent Variable Vent de SO
Gusts 0.3 mph

Aujourd'hui
Haut(e) -- | Bas -- ° F
--% Risque de précip.
Hier
Haut(e) -- | Bas -- ° F
Precip. -- pouce
7:31 AM 6:07 PM
Nouvelle lune, 1% visible
Pression 29.90 pouce
Visibilité 9.0 Miles terrestres
Nuages Nuages épars 2600 ft
Nuages épars 3200 ft
Point de rosée 54 ° F
Humidité 89%
Précipitations 0.00 pouce
Profondeur de la couche neigeuse Non disponible.
UV 0 sur 12
Pollen 2.20 sur 12
Qualité de l'air Non disponible.
Flu Activity Sporadic
SPECI KLSE 250120Z 20006KT 9SM SCT026 SCT032 14/12 A2990 RMK AO2 T01440122

More Conditions Fewer Conditions

Pression 29.90 pouce
Visibilité 9.0 Miles terrestres
Nuages Nuages épars 2600 ft
Nuages épars 3200 ft
Point de rosée 54 ° F
Humidité 89%
Précipitations 0.00 pouce
Profondeur de la couche neigeuse Non disponible.
UV 0 sur 12
Pollen 2.20 sur 12
Qualité de l'air Non disponible.
Flu Activity Sporadic
SPECI KLSE 250120Z 20006KT 9SM SCT026 SCT032 14/12 A2990 RMK AO2 T01440122

More Conditions Fewer Conditions

10-Day Weather Forecast

Almanac

Astronomie

Oct. 24, 2014 Lever Coucher
Temps réel 07:31 CDT 18:07 CDT
Crépuscule civil 07:02 CDT 18:36 CDT
Crépuscule nautique 06:28 CDT 19:10 CDT
Crépuscule astronomique 05:55 CDT 19:43 CDT
Lune 08:12 CDT (10/24) 18:45 CDT (10/24)
Durée de lumière visible 11h 34m
Longueur du jour
10h 35m
Tomorrow will be 2m 48s shorter.
Nouvelle lune, 1% of the Moon is Illuminated
Aujourd'hui
Nouvelle lune
Oct 30
Premier quartier
Nov 6
Pleine lune
Nov 14
Dernier quartier
Nov 22
Nouveau

Extrêmes aujourd'hui

State Highs State Lows

Community

WunderPhotos

Upload Photos

1,764,741 Photos téléchargées !

WunderBlogs® & News

Nearby

Épaisseur de neige

Station Depth Altitude
Pas de nouvelles chutes de neige

Activité sismique

Ville Distance Mag. Time & Date
No recent earthquake activity has been reported nearby.
Minimum magnitude displayed is 2.5.

Températures des eaux côtières

Lieu Température
Aucun rapport de station

Stations météo à proximité